Time;durP1;ratioP1;P1;durP2;ratioP2;P2;SDS_P1;SDS_P2;PMS_P1;PMS_P2;Temp;Humidity;BMP_temperature;BMP_pressure;BME280_temperature;BME280_humidity;BME280_pressure;Samples;Min_cycle;Max_cycle;Signal;HPM_P1;HPM_P2
2023/02/06 00:00:46;;;;;;;16.00;9.60;;;;;;;-2.28;100.00;101077.54;110038;1280;23024;-65
2023/02/06 00:03:13;;;;;;;15.70;9.50;;;;;;;-2.25;100.00;101079.52;109896;1280;22375;-65
2023/02/06 00:05:40;;;;;;;14.50;9.70;;;;;;;-2.19;100.00;101079.95;109810;1281;22306;-66
2023/02/06 00:08:07;;;;;;;15.40;10.40;;;;;;;-2.21;100.00;101082.12;109923;1279;22508;-65
2023/02/06 00:10:35;;;;;;;14.10;9.60;;;;;;;-2.20;100.00;101080.09;109911;1281;22434;-65
2023/02/06 00:13:02;;;;;;;15.00;9.80;;;;;;;-2.15;100.00;101084.02;109940;1280;22232;-65
2023/02/06 00:15:29;;;;;;;14.10;9.70;;;;;;;-2.17;100.00;101083.18;109940;1276;22262;-65
2023/02/06 00:17:56;;;;;;;16.50;10.30;;;;;;;-2.20;100.00;101083.23;109967;1278;22316;-65
2023/02/06 00:20:23;;;;;;;14.40;9.90;;;;;;;-2.18;100.00;101084.52;109949;1281;23192;-65
2023/02/06 00:22:50;;;;;;;15.80;9.90;;;;;;;-2.20;100.00;101086.30;109981;1280;22456;-65
2023/02/06 00:25:17;;;;;;;13.90;9.60;;;;;;;-2.24;100.00;101086.23;109895;1280;22418;-65
2023/02/06 00:27:44;;;;;;;;;;;;;;;-2.28;100.00;101083.19;109953;1281;23599;-65
2023/02/06 00:30:11;;;;;;;14.30;9.50;;;;;;;-2.27;100.00;101084.19;109927;1281;22201;-65
2023/02/06 00:32:39;;;;;;;13.90;9.20;;;;;;;-2.29;100.00;101084.38;109836;1282;22270;-65
2023/02/06 00:35:06;;;;;;;16.30;9.90;;;;;;;-2.28;100.00;101081.44;109987;1280;22449;-65
2023/02/06 00:37:33;;;;;;;15.90;9.70;;;;;;;-2.30;100.00;101080.23;107846;1281;25248;-64
2023/02/06 00:40:03;;;;;;;17.70;10.20;;;;;;;-2.29;100.00;101077.64;107227;1281;24263;-65
2023/02/06 00:42:30;;;;;;;13.60;9.80;;;;;;;-2.29;100.00;101081.72;107330;1281;22580;-65
2023/02/06 00:44:56;;;;;;;;;;;;;;;-2.30;100.00;101080.40;107092;1281;25242;-64
2023/02/06 00:47:24;;;;;;;16.80;9.50;;;;;;;-2.36;100.00;101077.09;107234;1277;22532;-65
2023/02/06 00:49:50;;;;;;;15.00;10.00;;;;;;;-2.45;100.00;101070.76;107289;1276;26302;-64
2023/02/06 00:52:19;;;;;;;12.70;9.40;;;;;;;-2.44;100.00;101072.42;107360;1276;26098;-64
2023/02/06 00:54:47;;;;;;;14.90;10.00;;;;;;;-2.43;100.00;101072.55;107315;1277;22571;-64
2023/02/06 00:57:14;;;;;;;;;;;;;;;-2.46;100.00;101072.41;107494;1276;22511;-64
2023/02/06 00:59:41;;;;;;;13.50;9.20;;;;;;;-2.46;100.00;101076.39;107394;1270;22999;-64
2023/02/06 01:02:09;;;;;;;14.80;9.90;;;;;;;-2.47;100.00;101077.69;107439;1276;25335;-65
2023/02/06 01:04:36;;;;;;;15.90;10.40;;;;;;;-2.52;100.00;101076.44;107337;1275;25376;-64
2023/02/06 01:07:05;;;;;;;15.40;10.30;;;;;;;-2.48;100.00;101077.86;107344;1276;22772;-65
2023/02/06 01:09:32;;;;;;;17.10;10.60;;;;;;;-2.48;100.00;101078.39;107424;1276;25425;-64
2023/02/06 01:11:59;;;;;;;16.20;10.70;;;;;;;-2.53;100.00;101074.36;107385;1276;22553;-65
2023/02/06 01:14:26;;;;;;;16.30;10.80;;;;;;;-2.50;100.00;101072.45;107427;1272;22648;-64
2023/02/06 01:16:53;;;;;;;19.00;11.30;;;;;;;-2.50;100.00;101075.21;107266;1277;26607;-65
2023/02/06 01:19:20;;;;;;;15.40;10.40;;;;;;;-2.54;100.00;101070.88;107437;1276;26526;-64
2023/02/06 01:21:48;;;;;;;14.70;9.70;;;;;;;-2.49;100.00;101069.52;107556;1276;25344;-64
2023/02/06 01:24:15;;;;;;;15.40;10.00;;;;;;;-2.46;100.00;101068.92;107474;1276;22513;-64
2023/02/06 01:26:43;;;;;;;16.30;11.50;;;;;;;-2.49;100.00;101065.31;110206;1276;22897;-65
2023/02/06 01:29:10;;;;;;;;;;;;;;;-2.51;100.00;101061.17;110321;1276;22517;-65
2023/02/06 01:31:37;;;;;;;19.30;10.90;;;;;;;-2.47;100.00;101065.25;110163;1276;22365;-65
2023/02/06 01:34:06;;;;;;;17.60;10.50;;;;;;;-2.51;100.00;101059.80;110243;1276;22859;-65
2023/02/06 01:36:35;;;;;;;16.70;10.10;;;;;;;-2.53;100.00;101067.63;108297;1273;22653;-65
2023/02/06 01:39:03;;;;;;;16.30;10.50;;;;;;;-2.49;100.00;101069.06;107299;1276;24251;-64
2023/02/06 01:41:31;;;;;;;16.20;10.00;;;;;;;-2.48;100.00;101072.89;107438;1276;25417;-65
2023/02/06 01:44:11;;;;;;;;;;;;;;;-2.55;100.00;101072.27;107495;1276;25308;-65
2023/02/06 01:46:38;;;;;;;15.90;9.70;;;;;;;-2.57;100.00;101069.63;107349;1276;24287;-64
2023/02/06 01:49:05;;;;;;;15.40;10.60;;;;;;;-2.55;100.00;101072.21;107283;1276;22592;-65
2023/02/06 01:51:34;;;;;;;14.60;9.50;;;;;;;-2.55;100.00;101076.23;107586;1270;25488;-64
2023/02/06 01:54:03;;;;;;;15.10;9.90;;;;;;;-2.59;100.00;101084.11;107769;1275;23480;-65
2023/02/06 01:56:32;;;;;;;16.10;10.80;;;;;;;-2.56;100.00;101090.09;108715;1272;25325;-65
2023/02/06 01:59:01;;;;;;;15.80;11.20;;;;;;;-2.53;100.00;101095.84;107506;1253;22528;-64
2023/02/06 02:01:29;;;;;;;17.10;11.10;;;;;;;-2.53;100.00;101097.19;107416;1270;25505;-64
2023/02/06 02:03:58;;;;;;;15.70;10.70;;;;;;;-2.49;100.00;101097.45;107322;1276;23771;-64
2023/02/06 02:06:25;;;;;;;17.40;11.40;;;;;;;-2.44;100.00;101100.23;107487;1271;24396;-65
2023/02/06 02:08:53;;;;;;;16.30;10.80;;;;;;;-2.48;100.00;101102.14;106315;1277;26643;-64
2023/02/06 02:11:33;;;;;;;16.10;10.40;;;;;;;-2.47;100.00;101101.23;110334;1276;22865;-65
2023/02/06 02:14:01;;;;;;;16.60;10.90;;;;;;;-2.46;100.00;101105.70;110232;1270;22385;-65
2023/02/06 02:16:34;;;;;;;16.80;11.30;;;;;;;-2.47;100.00;101108.30;110327;1276;23105;-65
2023/02/06 02:19:24;;;;;;;16.50;10.50;;;;;;;-2.43;100.00;101109.84;110318;1276;23049;-65
2023/02/06 02:22:24;;;;;;;15.00;10.20;;;;;;;-2.38;100.00;101113.22;110204;1272;22333;-66
2023/02/06 02:25:10;;;;;;;14.70;9.80;;;;;;;-2.39;100.00;101113.52;110338;1276;22368;-65
2023/02/06 02:27:47;;;;;;;17.30;11.30;;;;;;;-2.32;100.00;101110.34;110119;1278;22310;-65
2023/02/06 02:30:26;;;;;;;16.50;10.40;;;;;;;-2.33;100.00;101110.96;110273;1276;23183;-65
2023/02/06 02:33:11;;;;;;;16.10;10.40;;;;;;;-2.36;100.00;101113.75;110219;1274;22207;-65
2023/02/06 02:35:44;;;;;;;14.30;9.20;;;;;;;-2.30;100.00;101113.43;110145;1276;22367;-65
2023/02/06 02:38:28;;;;;;;17.10;11.10;;;;;;;-2.30;100.00;101113.14;110317;1276;22224;-65
2023/02/06 02:41:01;;;;;;;17.00;10.70;;;;;;;-2.35;100.00;101117.42;110191;1277;23201;-65
2023/02/06 02:43:56;;;;;;;15.80;11.30;;;;;;;-2.31;100.00;101116.80;110218;1274;22231;-65
2023/02/06 02:46:24;;;;;;;16.00;11.00;;;;;;;-2.29;100.00;101117.30;110024;1269;22333;-65
2023/02/06 02:48:53;;;;;;;15.80;10.40;;;;;;;-2.32;100.00;101116.18;110078;1276;22306;-65
2023/02/06 02:51:20;;;;;;;19.40;11.80;;;;;;;-2.28;100.00;101115.94;110114;1277;22296;-65
2023/02/06 02:53:48;;;;;;;17.90;11.30;;;;;;;-2.24;100.00;101119.59;110047;1276;22459;-65
2023/02/06 02:56:20;;;;;;;15.80;10.80;;;;;;;-2.26;100.00;101121.56;110224;1276;23145;-65
2023/02/06 02:58:51;;;;;;;16.60;10.40;;;;;;;-2.29;100.00;101124.77;110191;1276;23208;-66
2023/02/06 03:01:20;;;;;;;15.80;10.90;;;;;;;-2.25;100.00;101126.67;110091;1273;22219;-65
2023/02/06 03:03:47;;;;;;;15.90;10.10;;;;;;;-2.21;100.00;101133.34;110216;1270;22303;-65
2023/02/06 03:06:51;;;;;;;14.80;10.30;;;;;;;-2.26;100.00;101133.11;110001;1276;22273;-65
2023/02/06 03:09:28;;;;;;;14.60;10.00;;;;;;;-2.29;100.00;101142.68;110250;1276;22286;-65
2023/02/06 03:12:03;;;;;;;12.50;8.30;;;;;;;-2.24;100.00;101137.26;110102;1277;22275;-65
2023/02/06 03:14:39;;;;;;;15.40;9.90;;;;;;;-2.28;100.00;101140.98;110024;1276;22744;-65
2023/02/06 03:17:13;;;;;;;15.90;10.00;;;;;;;-2.31;100.00;101142.17;110070;1278;21987;-65
2023/02/06 03:19:43;;;;;;;17.10;10.50;;;;;;;-2.27;100.00;101137.66;106818;1273;24209;-64
2023/02/06 03:22:10;;;;;;;15.50;10.50;;;;;;;-2.29;100.00;101137.08;106470;1272;25340;-64
2023/02/06 03:24:37;;;;;;;15.00;9.50;;;;;;;-2.31;100.00;101136.67;106622;1270;22719;-64
2023/02/06 03:27:09;;;;;;;14.90;10.00;;;;;;;-2.31;100.00;101134.58;107552;1275;22770;-65
2023/02/06 03:29:37;;;;;;;14.70;10.30;;;;;;;-2.35;100.00;101137.80;107390;1276;23119;-64
2023/02/06 03:32:23;;;;;;;14.10;9.50;;;;;;;-2.39;100.00;101136.06;106472;1273;25341;-64
2023/02/06 03:35:07;;;;;;;12.70;8.90;;;;;;;-2.36;100.00;101136.86;106614;1276;23917;-64
2023/02/06 03:37:34;;;;;;;15.60;10.40;;;;;;;-2.43;100.00;101141.48;107039;1276;22522;-64
2023/02/06 03:40:21;;;;;;;13.40;9.30;;;;;;;-2.48;100.00;101140.92;108620;1276;22335;-65
2023/02/06 03:42:50;;;;;;;15.50;9.80;;;;;;;-2.44;100.00;101148.02;106805;1274;25366;-64
2023/02/06 03:45:25;;;;;;;15.20;9.70;;;;;;;-2.47;100.00;101150.58;107038;1276;24263;-64
2023/02/06 03:47:52;;;;;;;14.80;9.30;;;;;;;-2.45;100.00;101153.41;106966;1270;22609;-64
2023/02/06 03:50:20;;;;;;;14.60;9.80;;;;;;;-2.40;100.00;101154.86;106306;1276;23771;-64
2023/02/06 03:52:47;;;;;;;14.40;9.00;;;;;;;-2.43;100.00;101150.56;106749;1274;25384;-65
2023/02/06 03:55:22;;;;;;;12.80;9.50;;;;;;;-2.47;100.00;101155.27;106813;1275;22926;-64
2023/02/06 03:57:51;;;;;;;14.00;9.00;;;;;;;-2.45;100.00;101153.94;106792;1272;25303;-64
2023/02/06 04:00:19;;;;;;;13.70;9.10;;;;;;;-2.45;100.00;101152.02;110217;1276;23164;-65
2023/02/06 04:02:46;;;;;;;15.10;9.50;;;;;;;-2.49;100.00;101153.81;110210;1276;23155;-65
2023/02/06 04:05:15;;;;;;;14.70;9.60;;;;;;;-2.45;100.00;101158.42;110041;1276;22300;-65
2023/02/06 04:07:51;;;;;;;15.40;10.10;;;;;;;-2.43;100.00;101158.51;110260;1276;22365;-65
2023/02/06 04:10:20;;;;;;;13.10;8.90;;;;;;;-2.45;100.00;101158.06;110396;1276;22570;-65
2023/02/06 04:12:46;;;;;;;;;;;;;;;-2.45;100.00;101154.48;110274;1276;23062;-65
2023/02/06 04:15:14;;;;;;;15.10;9.00;;;;;;;-2.43;100.00;101157.86;110225;1276;22231;-65
2023/02/06 04:17:41;;;;;;;15.90;9.60;;;;;;;-2.47;100.00;101159.00;110254;1276;23003;-63
2023/02/06 04:20:25;;;;;;;14.10;8.80;;;;;;;-2.52;100.00;101156.90;110231;1275;23227;-64
2023/02/06 04:22:52;;;;;;;13.20;8.90;;;;;;;-2.45;100.00;101160.26;110270;1270;22403;-64
2023/02/06 04:25:18;;;;;;;;;;;;;;;-2.41;100.00;101158.75;110242;1274;22842;-63
2023/02/06 04:27:45;;;;;;;12.40;9.20;;;;;;;-2.45;100.00;101165.82;110329;1276;22511;-64
2023/02/06 04:30:12;;;;;;;;;;;;;;;-2.52;100.00;101169.00;110193;1276;22488;-64
2023/02/06 04:32:39;;;;;;;11.60;8.30;;;;;;;-2.48;100.00;101173.49;110346;1276;23205;-64
2023/02/06 04:35:06;;;;;;;14.40;8.80;;;;;;;-2.45;100.00;101172.69;110149;1278;23038;-64
2023/02/06 04:37:34;;;;;;;12.60;8.30;;;;;;;-2.46;100.00;101175.04;110314;1276;22256;-64
2023/02/06 04:40:01;;;;;;;14.30;9.50;;;;;;;-2.49;100.00;101176.75;110312;1276;22455;-64
2023/02/06 04:42:28;;;;;;;12.90;9.00;;;;;;;-2.45;100.00;101178.88;110371;1276;22555;-64
2023/02/06 04:44:54;;;;;;;;;;;;;;;-2.44;100.00;101179.13;110387;1276;22456;-63
2023/02/06 04:47:21;;;;;;;14.90;9.30;;;;;;;-2.52;100.00;101178.96;110266;1276;22226;-64
2023/02/06 04:49:48;;;;;;;12.90;8.80;;;;;;;-2.56;100.00;101183.75;108419;1276;23336;-63
2023/02/06 04:52:17;;;;;;;15.90;10.20;;;;;;;-2.45;100.00;101180.45;107143;1276;25354;-65
2023/02/06 04:54:44;;;;;;;12.50;8.70;;;;;;;-2.43;100.00;101179.66;107073;1270;23749;-64
2023/02/06 04:57:12;;;;;;;13.40;9.30;;;;;;;-2.46;100.00;101181.66;106661;1273;24351;-64
2023/02/06 04:59:39;;;;;;;13.80;9.10;;;;;;;-2.52;100.00;101183.55;106504;1272;25458;-64
2023/02/06 05:02:06;;;;;;;13.80;8.90;;;;;;;-2.54;100.00;101181.10;106319;1277;22523;-64
2023/02/06 05:04:32;;;;;;;13.20;8.50;;;;;;;-2.53;100.00;101187.08;106558;1276;23537;-64
2023/02/06 05:06:59;;;;;;;13.70;8.90;;;;;;;-2.56;100.00;101190.95;106546;1275;22536;-64
2023/02/06 05:09:26;;;;;;;15.50;9.50;;;;;;;-2.62;100.00;101194.85;106579;1276;22508;-64
2023/02/06 05:11:53;;;;;;;13.60;9.10;;;;;;;-2.61;100.00;101196.73;106598;1276;24192;-63
2023/02/06 05:14:20;;;;;;;12.90;9.10;;;;;;;-2.59;100.00;101195.72;106594;1270;24514;-64
2023/02/06 05:16:47;;;;;;;;;;;;;;;-2.61;100.00;101199.92;106609;1270;25386;-64
2023/02/06 05:19:14;;;;;;;14.90;9.80;;;;;;;-2.71;100.00;101197.61;106648;1276;25504;-64
2023/02/06 05:21:40;;;;;;;;;;;;;;;-2.78;100.00;101197.38;106680;1276;25347;-64
2023/02/06 05:24:07;;;;;;;17.90;11.20;;;;;;;-2.76;100.00;101198.58;106606;1273;22555;-64
2023/02/06 05:26:34;;;;;;;;;;;;;;;-2.82;100.00;101201.19;106597;1276;25440;-64
2023/02/06 05:29:01;;;;;;;14.20;9.40;;;;;;;-2.79;100.00;101203.27;110228;1276;22443;-64
2023/02/06 05:31:28;;;;;;;15.70;10.20;;;;;;;-2.75;100.00;101202.80;110255;1276;22967;-65
2023/02/06 05:33:55;;;;;;;15.60;10.60;;;;;;;-2.75;100.00;101203.16;110249;1276;22202;-64
2023/02/06 05:36:22;;;;;;;15.50;9.80;;;;;;;-2.72;100.00;101203.73;110252;1268;23215;-65
2023/02/06 05:38:49;;;;;;;15.30;10.40;;;;;;;-2.69;100.00;101207.14;110271;1276;22392;-64
2023/02/06 05:41:16;;;;;;;16.90;11.00;;;;;;;-2.70;100.00;101212.44;110312;1271;22481;-64
2023/02/06 05:43:43;;;;;;;18.80;11.90;;;;;;;-2.65;100.00;101210.34;107727;1276;22534;-64
2023/02/06 05:46:11;;;;;;;18.60;11.90;;;;;;;-2.59;100.00;101211.34;108420;1271;25540;-64
2023/02/06 05:48:39;;;;;;;17.30;12.10;;;;;;;-2.61;100.00;101207.65;106689;1271;26743;-64
2023/02/06 05:51:06;;;;;;;15.80;10.60;;;;;;;-2.66;100.00;101212.23;110223;1276;22987;-65
2023/02/06 05:53:33;;;;;;;15.30;9.80;;;;;;;-2.63;100.00;101207.49;110055;1277;22866;-64
2023/02/06 05:56:00;;;;;;;16.10;10.50;;;;;;;-2.60;100.00;101201.44;110238;1276;22298;-65
2023/02/06 05:58:28;;;;;;;16.50;9.90;;;;;;;-2.61;100.00;101206.35;110239;1276;22407;-64
2023/02/06 06:00:57;;;;;;;13.80;8.80;;;;;;;-2.61;100.00;101206.73;110227;1272;22341;-64
2023/02/06 06:03:24;;;;;;;14.60;10.00;;;;;;;-2.57;100.00;101205.39;110212;1276;22238;-65
2023/02/06 06:05:52;;;;;;;;;;;;;;;-2.57;100.00;101203.86;110262;1276;22443;-64
2023/02/06 06:08:20;;;;;;;15.90;10.10;;;;;;;-2.63;100.00;101204.21;110040;1272;23043;-65
2023/02/06 06:10:50;;;;;;;14.20;8.90;;;;;;;-2.61;100.00;101205.65;110244;1273;22361;-64
2023/02/06 06:13:19;;;;;;;16.00;11.10;;;;;;;-2.59;100.00;101204.69;110186;1269;22463;-65
2023/02/06 06:15:50;;;;;;;;;;;;;;;-2.59;100.00;101206.83;110208;1270;22465;-64
2023/02/06 06:18:19;;;;;;;16.40;10.40;;;;;;;-2.56;100.00;101206.89;110139;1270;22458;-65
2023/02/06 06:20:46;;;;;;;14.50;10.00;;;;;;;-2.56;100.00;101206.42;106391;1275;23489;-64
2023/02/06 06:23:13;;;;;;;17.00;10.40;;;;;;;-2.59;100.00;101210.84;107182;1270;22544;-64
2023/02/06 06:25:41;;;;;;;17.20;10.40;;;;;;;-2.56;100.00;101209.08;106633;1270;23717;-63
2023/02/06 06:28:09;;;;;;;17.20;10.70;;;;;;;-2.54;100.00;101218.60;107480;1273;22595;-64
2023/02/06 06:30:36;;;;;;;16.30;10.50;;;;;;;-2.56;100.00;101217.59;106488;1270;25351;-63
2023/02/06 06:33:04;;;;;;;17.60;11.10;;;;;;;-2.60;100.00;101213.34;106546;1273;22524;-64
2023/02/06 06:35:31;;;;;;;14.20;10.10;;;;;;;-2.58;100.00;101221.52;106848;1275;25364;-63
2023/02/06 06:37:58;;;;;;;15.20;9.90;;;;;;;-2.58;100.00;101217.98;107246;1270;25501;-63
2023/02/06 06:40:25;;;;;;;15.00;9.40;;;;;;;-2.59;100.00;101218.30;107073;1270;25420;-65
2023/02/06 06:42:52;;;;;;;13.60;9.80;;;;;;;-2.52;100.00;101219.32;107523;1273;26200;-65
2023/02/06 06:45:18;;;;;;;;;;;;;;;-2.46;100.00;101217.73;107703;1273;25329;-65
2023/02/06 06:47:45;;;;;;;15.10;9.50;;;;;;;-2.53;100.00;101216.95;107528;1276;25410;-68
2023/02/06 06:50:12;;;;;;;13.60;9.10;;;;;;;-2.54;100.00;101218.27;107601;1275;22624;-69
2023/02/06 06:52:39;;;;;;;14.60;9.90;;;;;;;-2.52;100.00;101218.39;108042;1276;25348;-69
2023/02/06 06:55:06;;;;;;;15.90;10.10;;;;;;;-2.50;100.00;101224.44;107573;1276;26277;-68
2023/02/06 06:57:34;;;;;;;14.40;10.10;;;;;;;-2.52;100.00;101228.05;107606;1273;22540;-68
2023/02/06 07:00:02;;;;;;;16.10;10.90;;;;;;;-2.53;100.00;101232.38;107539;1276;25478;-68
2023/02/06 07:02:29;;;;;;;15.70;10.50;;;;;;;-2.48;100.00;101235.66;107278;1276;24382;-68
2023/02/06 07:04:56;;;;;;;16.40;11.00;;;;;;;-2.43;100.00;101244.99;107432;1276;22608;-69
2023/02/06 07:07:23;;;;;;;16.10;10.10;;;;;;;-2.46;100.00;101241.31;107372;1277;23518;-68
2023/02/06 07:09:50;;;;;;;14.40;10.50;;;;;;;-2.45;100.00;101243.23;107469;1276;25052;-68
2023/02/06 07:12:21;;;;;;;14.10;9.80;;;;;;;-2.38;100.00;101243.05;107388;1277;22523;-68
2023/02/06 07:14:48;;;;;;;14.50;9.80;;;;;;;-2.30;100.00;101246.98;107308;1275;27651;-68
2023/02/06 07:17:14;;;;;;;;;;;;;;;-2.25;100.00;101244.54;107160;1277;23749;-68
2023/02/06 07:19:41;;;;;;;13.40;8.90;;;;;;;-2.28;100.00;101243.45;107348;1277;23417;-68
2023/02/06 07:22:08;;;;;;;14.80;9.40;;;;;;;-2.26;100.00;101242.52;107367;1277;24219;-68
2023/02/06 07:24:35;;;;;;;15.40;10.00;;;;;;;-2.22;100.00;101242.16;107398;1276;22570;-68
2023/02/06 07:27:03;;;;;;;20.80;12.60;;;;;;;-2.28;100.00;101249.29;110216;1277;22900;-67
2023/02/06 07:29:29;;;;;;;16.90;10.80;;;;;;;-2.30;100.00;101250.60;107346;1272;25571;-67
2023/02/06 07:31:56;;;;;;;;;;;;;;;-2.29;100.00;101251.14;107438;1276;23139;-68
2023/02/06 07:34:23;;;;;;;15.50;10.00;;;;;;;-2.33;100.00;101253.40;107432;1276;22531;-68
2023/02/06 07:36:50;;;;;;;15.40;10.00;;;;;;;-2.33;100.00;101254.27;107571;1269;22531;-68
2023/02/06 07:39:17;;;;;;;13.90;9.40;;;;;;;-2.31;100.00;101250.89;107508;1276;26534;-68
2023/02/06 07:41:45;;;;;;;14.10;8.70;;;;;;;-2.32;100.00;101255.75;107871;1276;22825;-68
2023/02/06 07:44:12;;;;;;;13.70;8.80;;;;;;;-2.26;100.00;101258.90;110239;1269;22338;-68
2023/02/06 07:46:41;;;;;;;15.30;10.40;;;;;;;-2.22;100.00;101261.02;110291;1276;22202;-68
2023/02/06 07:49:07;;;;;;;13.80;8.80;;;;;;;-2.18;100.00;101258.42;110234;1276;23464;-68
2023/02/06 07:51:35;;;;;;;16.30;9.80;;;;;;;-2.13;100.00;101256.84;110260;1269;22205;-68
2023/02/06 07:54:02;;;;;;;;;;;;;;;-2.05;100.00;101251.56;110277;1277;23265;-68
2023/02/06 07:56:28;;;;;;;11.70;8.00;;;;;;;-2.01;100.00;101254.23;110309;1276;22403;-68
2023/02/06 07:58:56;;;;;;;12.60;8.60;;;;;;;-2.05;100.00;101255.36;110293;1276;22226;-68
2023/02/06 08:01:23;;;;;;;;;;;;;;;-2.05;100.00;101259.04;110352;1276;22434;-68
2023/02/06 08:03:50;;;;;;;13.40;8.40;;;;;;;-1.97;100.00;101255.46;110305;1276;22253;-68
2023/02/06 08:06:17;;;;;;;12.90;8.60;;;;;;;-1.96;100.00;101258.25;110255;1277;22316;-68
2023/02/06 08:08:45;;;;;;;13.40;8.10;;;;;;;-1.94;100.00;101250.19;110190;1276;22509;-67
2023/02/06 08:11:17;;;;;;;12.20;7.90;;;;;;;-1.82;100.00;101248.75;110267;1276;22413;-67
2023/02/06 08:13:45;;;;;;;10.90;7.30;;;;;;;-1.74;100.00;101245.80;110346;1276;22253;-68
2023/02/06 08:16:17;;;;;;;15.00;9.70;;;;;;;-1.69;100.00;101248.78;110095;1272;22193;-67
2023/02/06 08:18:44;;;;;;;15.60;9.90;;;;;;;-1.63;100.00;101247.95;110370;1276;22948;-67
2023/02/06 08:21:14;;;;;;;14.60;8.20;;;;;;;-1.61;100.00;101249.77;110389;1276;22248;-67
2023/02/06 08:23:41;;;;;;;13.20;8.60;;;;;;;-1.64;100.00;101252.33;110411;1276;22254;-67
2023/02/06 08:26:13;;;;;;;13.80;9.70;;;;;;;-1.64;100.00;101255.39;110233;1276;22234;-67
2023/02/06 08:28:40;;;;;;;15.80;9.90;;;;;;;-1.56;100.00;101257.42;110366;1276;22646;-67
2023/02/06 08:31:10;;;;;;;11.50;7.00;;;;;;;-1.52;100.00;101257.07;110320;1275;22452;-67
2023/02/06 08:33:37;;;;;;;10.20;6.90;;;;;;;-1.45;100.00;101258.42;110348;1276;22296;-67
2023/02/06 08:36:05;;;;;;;11.20;7.40;;;;;;;-1.38;100.00;101257.70;110370;1276;22289;-67
2023/02/06 08:38:32;;;;;;;11.30;7.30;;;;;;;-1.34;100.00;101259.77;110240;1276;22283;-67
2023/02/06 08:40:58;;;;;;;10.90;6.60;;;;;;;-1.35;100.00;101262.73;110375;1276;22951;-67
2023/02/06 08:43:25;;;;;;;11.70;7.50;;;;;;;-1.38;100.00;101262.42;110346;1276;23611;-67
2023/02/06 08:45:55;;;;;;;10.60;7.40;;;;;;;-1.40;100.00;101263.06;110303;1277;22405;-66
2023/02/06 08:48:22;;;;;;;9.90;7.00;;;;;;;-1.44;100.00;101265.27;110088;1277;235368;-67
2023/02/06 08:51:57;;;;;;;12.80;9.20;;;;;;;-1.42;100.00;101257.10;104310;1298;545551;-66
2023/02/06 08:54:25;;;;;;;12.80;8.80;;;;;;;-1.39;100.00;101262.40;105753;1287;24016;-67
2023/02/06 08:56:55;;;;;;;11.90;8.60;;;;;;;-1.39;100.00;101260.67;106800;1287;25392;-67
2023/02/06 08:59:24;;;;;;;10.70;8.30;;;;;;;-1.37;100.00;101262.78;106878;1287;23308;-67
2023/02/06 09:01:52;;;;;;;10.30;6.20;;;;;;;-1.37;100.00;101259.07;107429;1288;23303;-67
2023/02/06 09:04:20;;;;;;;9.70;6.10;;;;;;;-1.32;100.00;101259.30;106783;1288;25259;-67
2023/02/06 09:06:50;;;;;;;9.80;6.10;;;;;;;-1.30;100.00;101251.94;106087;1285;1275654;-67
2023/02/06 09:09:19;;;;;;;9.60;6.30;;;;;;;-1.26;100.00;101257.66;106907;1285;24222;-67
2023/02/06 09:11:47;;;;;;;9.60;6.50;;;;;;;-1.22;100.00;101262.41;106828;1285;24391;-66
2023/02/06 09:14:16;;;;;;;9.70;6.00;;;;;;;-1.19;100.00;101262.86;108584;1273;23299;-67
2023/02/06 09:16:45;;;;;;;9.30;5.80;;;;;;;-1.17;100.00;101261.59;107332;1277;23090;-67
2023/02/06 09:19:14;;;;;;;8.60;5.90;;;;;;;-1.22;100.00;101260.81;107274;1278;22839;-67
2023/02/06 09:21:42;;;;;;;9.30;6.70;;;;;;;-1.22;100.00;101261.77;107280;1278;22549;-66
2023/02/06 09:24:10;;;;;;;10.20;7.10;;;;;;;-1.19;100.00;101258.95;107257;1279;27668;-66
2023/02/06 09:26:40;;;;;;;11.60;7.10;;;;;;;-1.20;100.00;101256.84;107324;1279;23471;-66
2023/02/06 09:29:27;;;;;;;10.90;7.00;;;;;;;-1.26;100.00;101255.54;107489;1279;25503;-67
2023/02/06 09:31:56;;;;;;;10.40;6.70;;;;;;;-1.30;100.00;101259.79;107940;1271;22978;-67
2023/02/06 09:34:25;;;;;;;9.30;6.30;;;;;;;-1.31;100.00;101259.48;107664;1278;24199;-67
2023/02/06 09:36:55;;;;;;;8.30;5.70;;;;;;;-1.35;100.00;101262.56;110271;1278;22340;-67
2023/02/06 09:39:24;;;;;;;10.30;6.80;;;;;;;-1.38;100.00;101256.80;110266;1278;22213;-66
2023/02/06 09:41:54;;;;;;;9.40;5.60;;;;;;;-1.35;100.00;101256.83;110277;1278;22280;-67
2023/02/06 09:44:32;;;;;;;9.70;5.90;;;;;;;-1.28;100.00;101253.28;110045;1278;22888;-67
2023/02/06 09:47:16;;;;;;;9.30;5.40;;;;;;;-1.26;100.00;101258.28;110049;1278;22258;-67
2023/02/06 09:50:01;;;;;;;8.50;5.40;;;;;;;-1.25;100.00;101253.91;110271;1278;22372;-67
2023/02/06 09:52:42;;;;;;;7.40;5.20;;;;;;;-1.24;100.00;101251.33;109997;1278;22973;-66
2023/02/06 09:55:32;;;;;;;7.20;4.60;;;;;;;-1.24;100.00;101246.12;110277;1278;23037;-67
2023/02/06 09:58:19;;;;;;;8.20;4.90;;;;;;;-1.31;100.00;101244.21;110044;1278;22246;-67
2023/02/06 10:01:02;;;;;;;9.90;6.40;;;;;;;-1.40;100.00;101244.92;110273;1278;22241;-67
2023/02/06 10:04:04;;;;;;;8.40;5.40;;;;;;;-1.39;100.00;101241.09;109268;1278;22517;-66
2023/02/06 10:07:05;;;;;;;9.50;5.60;;;;;;;-1.37;100.00;101237.28;107269;1278;25398;-67
2023/02/06 10:09:39;;;;;;;8.10;5.20;;;;;;;-1.43;100.00;101239.80;107021;1278;26158;-67
2023/02/06 10:12:38;;;;;;;9.30;6.00;;;;;;;-1.51;100.00;101238.41;107347;1278;26584;-66
2023/02/06 10:15:12;;;;;;;8.60;5.80;;;;;;;-1.51;100.00;101237.34;107328;1279;23720;-66
2023/02/06 10:17:56;;;;;;;7.10;4.70;;;;;;;-1.42;100.00;101233.94;106959;1279;24244;-66
2023/02/06 10:20:33;;;;;;;7.90;5.40;;;;;;;-1.36;100.00;101235.27;107584;1278;24007;-66
2023/02/06 10:23:11;;;;;;;9.90;6.70;;;;;;;-1.33;100.00;101231.33;107397;1278;27652;-67
2023/02/06 10:25:48;;;;;;;10.70;6.50;;;;;;;-1.29;100.00;101230.98;107386;1278;23321;-66
2023/02/06 10:28:25;;;;;;;8.60;5.60;;;;;;;-1.28;100.00;101219.15;110101;1278;22253;-67
2023/02/06 10:31:25;;;;;;;8.90;5.60;;;;;;;-1.21;100.00;101216.73;110221;1278;22201;-67
2023/02/06 10:34:05;;;;;;;8.70;5.40;;;;;;;-1.12;100.00;101219.72;110230;1279;22297;-67
2023/02/06 10:37:13;;;;;;;6.70;4.70;;;;;;;-1.18;100.00;101219.94;110132;1279;22371;-67
2023/02/06 10:40:10;;;;;;;7.90;4.60;;;;;;;-1.16;100.00;101221.91;110218;1278;22278;-67
2023/02/06 10:42:59;;;;;;;6.10;3.60;;;;;;;-1.18;100.00;101214.96;110082;1278;22320;-67
2023/02/06 10:45:40;;;;;;;6.80;4.50;;;;;;;-1.20;100.00;101214.55;110048;1278;22365;-67
2023/02/06 10:48:08;;;;;;;7.50;5.00;;;;;;;-1.24;100.00;101213.33;110071;1273;22387;-67
2023/02/06 10:51:13;;;;;;;8.40;4.50;;;;;;;-1.24;100.00;101213.15;110273;1278;23157;-67
2023/02/06 10:53:48;;;;;;;7.50;3.80;;;;;;;-1.20;100.00;101209.73;110069;1278;23378;-67
2023/02/06 10:56:23;;;;;;;9.00;5.20;;;;;;;-1.13;100.00;101212.00;110074;1278;22375;-67
2023/02/06 10:58:59;;;;;;;6.50;4.20;;;;;;;-1.13;100.00;101204.36;109977;1278;22192;-67
2023/02/06 11:01:30;;;;;;;7.20;4.40;;;;;;;-1.14;100.00;101202.15;110275;1278;22393;-67
2023/02/06 11:04:03;;;;;;;6.20;4.60;;;;;;;-1.14;100.00;101199.08;110278;1278;22288;-67
2023/02/06 11:06:38;;;;;;;;;;;;;;;-1.12;100.00;101200.84;110000;1278;22425;-68
2023/02/06 11:09:08;;;;;;;6.00;4.20;;;;;;;-1.11;100.00;101206.24;110081;1278;22927;-68
2023/02/06 11:11:38;;;;;;;6.80;3.90;;;;;;;-1.04;100.00;101204.73;110353;1276;22270;-67
2023/02/06 11:14:12;;;;;;;7.40;4.80;;;;;;;-0.99;100.00;101200.70;110150;1276;22202;-68
2023/02/06 11:16:40;;;;;;;6.40;4.00;;;;;;;-0.97;100.00;101203.16;110195;1276;22848;-68
2023/02/06 11:19:23;;;;;;;6.60;4.20;;;;;;;-1.03;100.00;101201.13;110365;1276;22960;-67
2023/02/06 11:21:51;;;;;;;8.00;5.10;;;;;;;-1.13;100.00;101197.91;110037;1276;22332;-67